Terminal Aerodrome Forecast
Issued by NWS Rapid City, SD

Home | Current Version | Previous Version | Text Only | Print | Product List | Glossary Off
Versions: 1 2 3 4 5 6 7 8 9 10 11 12 13 14 15 16 17 18 19 20 21 22 23 24 25 26
000 FTUS43 KUNR 240922 AAX TAFRAP TAF AMD KRAP 240922Z 2409/2506 14010KT P6SM SCT150 FM241400 34025G35KT P6SM SCT025 OVC040 TEMPO 2415/2418 1SM -SHSN VV008 FM250000 34020G30KT 3/4SM -SN VV006=

USA.gov is the U.S. government's official web portal to all federal, state and local government web resources and services.